sensor_id;sensor_type;location;lat;lon;timestamp;pressure;altitude;pressure_sealevel;temperature;humidity
75146;BME280;63641;46.526;24.612;2022-10-13T00:01:09;97999.47;;;14.07;75.99
75146;BME280;63641;46.526;24.612;2022-10-13T00:03:40;97993.22;;;14.07;76.16
75146;BME280;63641;46.526;24.612;2022-10-13T00:06:09;97994.03;;;14.07;76.01
75146;BME280;63641;46.526;24.612;2022-10-13T00:08:37;97994.03;;;14.07;76.04
75146;BME280;63641;46.526;24.612;2022-10-13T00:11:12;97993.22;;;14.07;76.12
75146;BME280;63641;46.526;24.612;2022-10-13T00:13:40;97985.56;;;14.09;76.08
75146;BME280;63641;46.526;24.612;2022-10-13T00:16:08;97988.81;;;14.11;76.12
75146;BME280;63641;46.526;24.612;2022-10-13T00:18:36;97989.63;;;14.11;76.14
75146;BME280;63641;46.526;24.612;2022-10-13T00:21:07;97983.38;;;14.11;76.02
75146;BME280;63641;46.526;24.612;2022-10-13T00:23:34;97977.13;;;14.10;76.24
75146;BME280;63641;46.526;24.612;2022-10-13T00:26:04;97978.75;;;14.11;76.11
75146;BME280;63641;46.526;24.612;2022-10-13T00:28:31;97978.19;;;14.09;75.95
75146;BME280;63641;46.526;24.612;2022-10-13T00:30:58;97976.66;;;14.03;76.28
75146;BME280;63641;46.526;24.612;2022-10-13T00:33:25;97970.13;;;13.99;76.27
75146;BME280;63641;46.526;24.612;2022-10-13T00:35:52;97966.34;;;14.00;76.30
75146;BME280;63641;46.526;24.612;2022-10-13T00:38:20;97967.97;;;14.01;76.34
75146;BME280;63641;46.526;24.612;2022-10-13T00:40:50;97964.69;;;13.99;76.18
75146;BME280;63641;46.526;24.612;2022-10-13T00:43:25;97962.28;;;13.97;76.17
75146;BME280;63641;46.526;24.612;2022-10-13T00:45:53;97959.06;;;13.90;76.33
75146;BME280;63641;46.526;24.612;2022-10-13T00:48:22;97959.38;;;13.89;76.40
75146;BME280;63641;46.526;24.612;2022-10-13T00:50:51;97955.00;;;13.88;76.34
75146;BME280;63641;46.526;24.612;2022-10-13T00:53:22;97953.47;;;13.82;76.40
75146;BME280;63641;46.526;24.612;2022-10-13T00:55:50;97955.16;;;13.72;76.76
75146;BME280;63641;46.526;24.612;2022-10-13T00:58:18;97953.84;;;13.70;76.70
75146;BME280;63641;46.526;24.612;2022-10-13T01:00:48;97958.44;;;13.69;76.87
75146;BME280;63641;46.526;24.612;2022-10-13T01:03:19;97964.66;;;13.75;76.77
75146;BME280;63641;46.526;24.612;2022-10-13T01:05:46;97957.03;;;13.77;76.83
75146;BME280;63641;46.526;24.612;2022-10-13T01:08:14;97957.84;;;13.77;76.69
75146;BME280;63641;46.526;24.612;2022-10-13T01:16:48;97947.22;;;13.81;76.58
75146;BME280;63641;46.526;24.612;2022-10-13T01:30:21;97942.09;;;13.74;76.35
75146;BME280;63641;46.526;24.612;2022-10-13T01:33:05;97954.03;;;13.78;76.26
75146;BME280;63641;46.526;24.612;2022-10-13T01:41:11;97945.88;;;13.78;76.36
75146;BME280;63641;46.526;24.612;2022-10-13T01:43:45;97939.88;;;13.76;76.13
75146;BME280;63641;46.526;24.612;2022-10-13T01:46:19;97947.00;;;13.72;76.21
75146;BME280;63641;46.526;24.612;2022-10-13T01:48:48;97941.56;;;13.72;76.23
75146;BME280;63641;46.526;24.612;2022-10-13T01:51:18;97940.75;;;13.72;76.19
75146;BME280;63641;46.526;24.612;2022-10-13T01:53:47;97942.66;;;13.71;76.12
75146;BME280;63641;46.526;24.612;2022-10-13T01:56:14;97942.13;;;13.69;76.14
75146;BME280;63641;46.526;24.612;2022-10-13T01:58:41;97938.38;;;13.65;76.21
75146;BME280;63641;46.526;24.612;2022-10-13T02:06:36;97935.47;;;13.57;76.46
75146;BME280;63641;46.526;24.612;2022-10-13T02:11:45;97936.84;;;13.54;76.53
75146;BME280;63641;46.526;24.612;2022-10-13T02:14:22;97944.16;;;13.59;76.23
75146;BME280;63641;46.526;24.612;2022-10-13T02:16:52;97941.16;;;13.60;76.42
75146;BME280;63641;46.526;24.612;2022-10-13T02:19:21;97942.75;;;13.61;76.55
75146;BME280;63641;46.526;24.612;2022-10-13T02:21:48;97938.13;;;13.62;76.43
75146;BME280;63641;46.526;24.612;2022-10-13T02:24:17;97938.94;;;13.62;76.53
75146;BME280;63641;46.526;24.612;2022-10-13T02:26:43;97944.66;;;13.61;76.56
75146;BME280;63641;46.526;24.612;2022-10-13T02:29:13;97947.38;;;13.61;76.48
75146;BME280;63641;46.526;24.612;2022-10-13T02:31:41;97947.09;;;13.62;76.58
75146;BME280;63641;46.526;24.612;2022-10-13T02:34:08;97947.09;;;13.62;76.69
75146;BME280;63641;46.526;24.612;2022-10-13T02:36:35;97946.28;;;13.62;76.66
75146;BME280;63641;46.526;24.612;2022-10-13T02:39:06;97939.53;;;13.59;76.62
75146;BME280;63641;46.526;24.612;2022-10-13T02:41:33;97946.88;;;13.59;76.63
75146;BME280;63641;46.526;24.612;2022-10-13T02:44:00;97940.59;;;13.58;76.69
75146;BME280;63641;46.526;24.612;2022-10-13T02:46:27;97942.81;;;13.56;76.64
75146;BME280;63641;46.526;24.612;2022-10-13T02:48:54;97945.25;;;13.58;76.88
75146;BME280;63641;46.526;24.612;2022-10-13T02:51:20;97941.44;;;13.59;76.93
75146;BME280;63641;46.526;24.612;2022-10-13T02:53:47;97944.97;;;13.59;76.98
75146;BME280;63641;46.526;24.612;2022-10-13T02:56:14;97940.34;;;13.60;76.97
75146;BME280;63641;46.526;24.612;2022-10-13T02:58:41;97941.66;;;13.62;76.83
75146;BME280;63641;46.526;24.612;2022-10-13T03:01:12;97941.38;;;13.64;76.75
75146;BME280;63641;46.526;24.612;2022-10-13T03:03:40;97936.75;;;13.64;76.66
75146;BME280;63641;46.526;24.612;2022-10-13T03:06:07;97945.44;;;13.66;76.89
75146;BME280;63641;46.526;24.612;2022-10-13T03:08:34;97938.38;;;13.65;76.82
75146;BME280;63641;46.526;24.612;2022-10-13T03:11:01;97941.09;;;13.65;76.77
75146;BME280;63641;46.526;24.612;2022-10-13T03:13:28;97939.47;;;13.64;76.84
75146;BME280;63641;46.526;24.612;2022-10-13T03:15:55;97943.56;;;13.62;76.88
75146;BME280;63641;46.526;24.612;2022-10-13T03:18:21;97946.81;;;13.64;77.01
75146;BME280;63641;46.526;24.612;2022-10-13T03:20:59;97944.91;;;13.64;77.01
75146;BME280;63641;46.526;24.612;2022-10-13T03:23:26;97943.53;;;13.67;77.15
75146;BME280;63641;46.526;24.612;2022-10-13T03:25:54;97949.47;;;13.69;76.94
75146;BME280;63641;46.526;24.612;2022-10-13T03:28:21;97942.97;;;13.70;76.73
75146;BME280;63641;46.526;24.612;2022-10-13T03:30:48;97942.66;;;13.71;76.77
75146;BME280;63641;46.526;24.612;2022-10-13T03:33:15;97950.28;;;13.69;76.78
75146;BME280;63641;46.526;24.612;2022-10-13T03:35:41;97959.22;;;13.75;76.64
75146;BME280;63641;46.526;24.612;2022-10-13T03:38:09;97951.06;;;13.75;76.63
75146;BME280;63641;46.526;24.612;2022-10-13T03:40:35;97945.38;;;13.71;76.83
75146;BME280;63641;46.526;24.612;2022-10-13T03:43:02;97946.75;;;13.74;76.63
75146;BME280;63641;46.526;24.612;2022-10-13T03:45:29;97954.34;;;13.72;76.71
75146;BME280;63641;46.526;24.612;2022-10-13T03:47:56;97947.00;;;13.72;76.53
75146;BME280;63641;46.526;24.612;2022-10-13T03:50:24;97946.50;;;13.70;76.52
75146;BME280;63641;46.526;24.612;2022-10-13T03:52:51;97941.31;;;13.69;76.76
75146;BME280;63641;46.526;24.612;2022-10-13T03:55:17;97942.19;;;13.64;76.64
75146;BME280;63641;46.526;24.612;2022-10-13T03:57:44;97938.38;;;13.65;76.68
75146;BME280;63641;46.526;24.612;2022-10-13T04:00:11;97932.69;;;13.62;76.65
75146;BME280;63641;46.526;24.612;2022-10-13T04:02:38;97932.75;;;13.57;76.86
75146;BME280;63641;46.526;24.612;2022-10-13T04:05:05;97934.13;;;13.54;76.83
75146;BME280;63641;46.526;24.612;2022-10-13T04:07:32;97930.66;;;13.48;76.94
75146;BME280;63641;46.526;24.612;2022-10-13T04:09:58;97922.53;;;13.43;77.12
75146;BME280;63641;46.526;24.612;2022-10-13T04:12:25;97931.84;;;13.37;77.06
75146;BME280;63641;46.526;24.612;2022-10-13T04:14:52;97920.22;;;13.26;77.29
75146;BME280;63641;46.526;24.612;2022-10-13T04:17:19;97935.44;;;13.22;77.55
75146;BME280;63641;46.526;24.612;2022-10-13T04:19:46;97935.72;;;13.21;77.50
75146;BME280;63641;46.526;24.612;2022-10-13T04:22:13;97942.22;;;13.25;77.64
75146;BME280;63641;46.526;24.612;2022-10-13T04:24:40;97929.75;;;13.24;77.48
75146;BME280;63641;46.526;24.612;2022-10-13T04:27:06;97943.03;;;13.31;77.21
75146;BME280;63641;46.526;24.612;2022-10-13T04:29:33;97946.25;;;13.33;77.28
75146;BME280;63641;46.526;24.612;2022-10-13T04:32:00;97941.66;;;13.33;77.03
75146;BME280;63641;46.526;24.612;2022-10-13T04:34:26;97946.78;;;13.35;77.04
75146;BME280;63641;46.526;24.612;2022-10-13T04:36:53;97952.22;;;13.35;76.96
75146;BME280;63641;46.526;24.612;2022-10-13T04:39:20;97944.06;;;13.35;76.86
75146;BME280;63641;46.526;24.612;2022-10-13T04:41:46;97944.63;;;13.37;76.86
75146;BME280;63641;46.526;24.612;2022-10-13T04:44:13;97947.34;;;13.37;76.52
75146;BME280;63641;46.526;24.612;2022-10-13T04:46:40;97956.00;;;13.39;76.76
75146;BME280;63641;46.526;24.612;2022-10-13T04:49:07;97949.81;;;13.33;76.57
75146;BME280;63641;46.526;24.612;2022-10-13T04:51:33;97951.13;;;13.36;76.63
75146;BME280;63641;46.526;24.612;2022-10-13T04:54:01;97951.94;;;13.36;76.40
75146;BME280;63641;46.526;24.612;2022-10-13T04:56:28;97954.94;;;13.35;76.43
75146;BME280;63641;46.526;24.612;2022-10-13T04:58:55;97954.94;;;13.35;76.59
75146;BME280;63641;46.526;24.612;2022-10-13T05:01:23;97961.44;;;13.39;76.35
75146;BME280;63641;46.526;24.612;2022-10-13T05:03:55;97959.25;;;13.41;76.54
75146;BME280;63641;46.526;24.612;2022-10-13T05:06:25;97959.00;;;13.37;76.37
75146;BME280;63641;46.526;24.612;2022-10-13T05:08:52;97960.09;;;13.36;76.42
75146;BME280;63641;46.526;24.612;2022-10-13T05:11:20;97959.81;;;13.38;76.42
75146;BME280;63641;46.526;24.612;2022-10-13T05:13:48;97966.06;;;13.38;76.52
75146;BME280;63641;46.526;24.612;2022-10-13T05:16:16;97962.81;;;13.36;76.44
75146;BME280;63641;46.526;24.612;2022-10-13T05:18:44;97966.88;;;13.39;76.45
75146;BME280;63641;46.526;24.612;2022-10-13T05:21:13;97958.22;;;13.32;76.51
75146;BME280;63641;46.526;24.612;2022-10-13T05:23:41;97967.97;;;13.38;76.71
75146;BME280;63641;46.526;24.612;2022-10-13T05:26:10;97963.09;;;13.35;76.59
75146;BME280;63641;46.526;24.612;2022-10-13T05:28:37;97972.56;;;13.42;76.71
75146;BME280;63641;46.526;24.612;2022-10-13T05:31:15;97975.50;;;13.46;76.80
75146;BME280;63641;46.526;24.612;2022-10-13T05:33:43;97965.50;;;13.41;76.58
75146;BME280;63641;46.526;24.612;2022-10-13T05:36:16;97982.00;;;13.50;76.62
75146;BME280;63641;46.526;24.612;2022-10-13T05:38:43;97985.25;;;13.52;76.74
75146;BME280;63641;46.526;24.612;2022-10-13T05:41:12;97978.78;;;13.48;76.54
75146;BME280;63641;46.526;24.612;2022-10-13T05:43:40;97982.78;;;13.56;76.73
75146;BME280;63641;46.526;24.612;2022-10-13T05:46:07;97980.09;;;13.50;76.67
75146;BME280;63641;46.526;24.612;2022-10-13T05:48:35;97990.72;;;13.47;76.78
75146;BME280;63641;46.526;24.612;2022-10-13T05:51:39;97991.88;;;13.41;76.96
75146;BME280;63641;46.526;24.612;2022-10-13T05:54:03;97995.75;;;13.29;76.88
75146;BME280;63641;46.526;24.612;2022-10-13T05:56:37;98001.22;;;13.19;77.47
75146;BME280;63641;46.526;24.612;2022-10-13T05:59:07;98004.53;;;13.11;77.75
75146;BME280;63641;46.526;24.612;2022-10-13T06:01:37;98010.28;;;13.04;77.84
75146;BME280;63641;46.526;24.612;2022-10-13T06:04:10;98003.00;;;12.95;77.96
75146;BME280;63641;46.526;24.612;2022-10-13T06:06:38;98007.31;;;12.96;77.88
75146;BME280;63641;46.526;24.612;2022-10-13T06:09:05;98007.56;;;12.99;77.91
75146;BME280;63641;46.526;24.612;2022-10-13T06:11:32;98010.59;;;12.98;78.03
75146;BME280;63641;46.526;24.612;2022-10-13T06:13:59;98003.78;;;13.00;78.10
75146;BME280;63641;46.526;24.612;2022-10-13T06:16:26;98006.22;;;13.02;78.04
75146;BME280;63641;46.526;24.612;2022-10-13T06:18:53;98001.34;;;12.99;77.98
75146;BME280;63641;46.526;24.612;2022-10-13T06:21:20;98009.47;;;13.04;78.15
75146;BME280;63641;46.526;24.612;2022-10-13T06:23:47;98008.91;;;13.07;78.22
75146;BME280;63641;46.526;24.612;2022-10-13T06:26:13;98005.09;;;13.03;77.90
75146;BME280;63641;46.526;24.612;2022-10-13T06:28:41;98017.03;;;13.12;78.06
75146;BME280;63641;46.526;24.612;2022-10-13T06:31:14;98007.25;;;13.11;78.09
75146;BME280;63641;46.526;24.612;2022-10-13T06:33:41;98018.09;;;13.16;77.71
75146;BME280;63641;46.526;24.612;2022-10-13T06:36:08;98021.59;;;13.22;77.88
75146;BME280;63641;46.526;24.612;2022-10-13T06:38:35;98013.19;;;13.18;77.65
75146;BME280;63641;46.526;24.612;2022-10-13T06:41:03;98013.44;;;13.27;77.77
75146;BME280;63641;46.526;24.612;2022-10-13T06:43:31;98011.47;;;13.33;77.78
75146;BME280;63641;46.526;24.612;2022-10-13T06:46:05;98007.97;;;13.32;77.83
75146;BME280;63641;46.526;24.612;2022-10-13T06:48:33;98011.16;;;13.39;77.69
75146;BME280;63641;46.526;24.612;2022-10-13T06:51:01;98007.59;;;13.44;77.62
75146;BME280;63641;46.526;24.612;2022-10-13T06:53:29;98010.06;;;13.45;77.75
75146;BME280;63641;46.526;24.612;2022-10-13T06:56:00;98005.66;;;13.49;77.64
75146;BME280;63641;46.526;24.612;2022-10-13T06:58:28;98008.94;;;13.51;77.39
75146;BME280;63641;46.526;24.612;2022-10-13T07:00:55;98007.53;;;13.54;77.30
75146;BME280;63641;46.526;24.612;2022-10-13T07:03:22;98005.66;;;13.49;77.52
75146;BME280;63641;46.526;24.612;2022-10-13T07:05:51;98005.38;;;13.51;77.53
75146;BME280;63641;46.526;24.612;2022-10-13T07:08:18;97988.91;;;13.37;77.34
75146;BME280;63641;46.526;24.612;2022-10-13T07:10:46;98006.22;;;13.46;77.54
75146;BME280;63641;46.526;24.612;2022-10-13T07:13:12;97979.22;;;13.26;77.46
75146;BME280;63641;46.526;24.612;2022-10-13T07:15:39;98001.09;;;13.40;77.59
75146;BME280;63641;46.526;24.612;2022-10-13T07:18:07;97991.63;;;13.37;77.55
75146;BME280;63641;46.526;24.612;2022-10-13T07:20:34;98003.00;;;13.39;77.45
75146;BME280;63641;46.526;24.612;2022-10-13T07:23:00;98002.78;;;13.36;77.60
75146;BME280;63641;46.526;24.612;2022-10-13T07:25:27;97995.75;;;13.29;77.88
75146;BME280;63641;46.526;24.612;2022-10-13T07:27:54;97987.06;;;13.27;77.79
75146;BME280;63641;46.526;24.612;2022-10-13T07:30:21;98003.88;;;13.35;77.85
75146;BME280;63641;46.526;24.612;2022-10-13T07:32:48;97991.63;;;13.37;77.99
75146;BME280;63641;46.526;24.612;2022-10-13T07:35:15;97995.91;;;13.43;77.71
75146;BME280;63641;46.526;24.612;2022-10-13T07:37:41;98001.56;;;13.52;77.87
75146;BME280;63641;46.526;24.612;2022-10-13T07:40:08;97999.38;;;13.54;77.76
75146;BME280;63641;46.526;24.612;2022-10-13T07:42:35;97994.97;;;13.58;77.75
75146;BME280;63641;46.526;24.612;2022-10-13T07:45:02;97973.03;;;13.49;77.76
75146;BME280;63641;46.526;24.612;2022-10-13T07:47:32;97991.22;;;13.54;77.57
75146;BME280;63641;46.526;24.612;2022-10-13T07:49:59;97983.44;;;13.42;77.76
75146;BME280;63641;46.526;24.612;2022-10-13T07:52:26;97987.50;;;13.40;77.77
75146;BME280;63641;46.526;24.612;2022-10-13T07:54:56;97965.91;;;13.14;78.12
75146;BME280;63641;46.526;24.612;2022-10-13T07:57:26;97987.88;;;13.28;78.12
75146;BME280;63641;46.526;24.612;2022-10-13T07:59:53;97991.97;;;13.25;78.21
75146;BME280;63641;46.526;24.612;2022-10-13T08:02:20;97993.59;;;13.21;78.25
75146;BME280;63641;46.526;24.612;2022-10-13T08:04:47;97979.75;;;13.18;78.38
75146;BME280;63641;46.526;24.612;2022-10-13T08:07:14;97993.06;;;13.19;78.44
75146;BME280;63641;46.526;24.612;2022-10-13T08:09:43;97986.03;;;13.13;78.30
75146;BME280;63641;46.526;24.612;2022-10-13T08:12:10;98000.94;;;13.21;78.29
75146;BME280;63641;46.526;24.612;2022-10-13T08:14:37;97996.59;;;13.20;78.49
75146;BME280;63641;46.526;24.612;2022-10-13T08:17:04;97987.94;;;13.13;78.47
75146;BME280;63641;46.526;24.612;2022-10-13T08:19:31;97995.78;;;13.19;78.42
75146;BME280;63641;46.526;24.612;2022-10-13T08:21:58;97984.97;;;13.09;78.43
75146;BME280;63641;46.526;24.612;2022-10-13T08:24:26;97989.06;;;13.12;78.32
75146;BME280;63641;46.526;24.612;2022-10-13T08:26:53;97995.03;;;13.09;78.43
75146;BME280;63641;46.526;24.612;2022-10-13T08:29:20;97991.25;;;13.04;78.33
75146;BME280;63641;46.526;24.612;2022-10-13T08:31:52;97996.97;;;13.03;78.46
75146;BME280;63641;46.526;24.612;2022-10-13T08:34:21;97984.53;;;12.97;78.58
75146;BME280;63641;46.526;24.612;2022-10-13T08:36:48;97982.88;;;12.96;78.90
75146;BME280;63641;46.526;24.612;2022-10-13T08:39:19;97977.22;;;12.87;78.67
75146;BME280;63641;46.526;24.612;2022-10-13T08:41:47;97981.00;;;12.91;78.95
75146;BME280;63641;46.526;24.612;2022-10-13T08:49:56;97986.47;;;12.81;79.12
75146;BME280;63641;46.526;24.612;2022-10-13T08:52:29;97988.13;;;12.82;79.21
75146;BME280;63641;46.526;24.612;2022-10-13T08:55:17;98001.41;;;12.89;79.10
75146;BME280;63641;46.526;24.612;2022-10-13T08:57:48;97994.06;;;12.89;78.97
75146;BME280;63641;46.526;24.612;2022-10-13T09:00:16;98005.44;;;12.91;78.74
75146;BME280;63641;46.526;24.612;2022-10-13T09:02:43;97998.63;;;12.99;78.81
75146;BME280;63641;46.526;24.612;2022-10-13T09:05:18;98005.09;;;13.03;78.69
75146;BME280;63641;46.526;24.612;2022-10-13T09:07:48;98005.16;;;12.98;78.66
75146;BME280;63641;46.526;24.612;2022-10-13T09:10:29;97969.63;;;12.84;78.67
75146;BME280;63641;46.526;24.612;2022-10-13T09:12:56;97985.31;;;12.97;78.52
75146;BME280;63641;46.526;24.612;2022-10-13T09:15:26;97984.47;;;13.02;78.58
75146;BME280;63641;46.526;24.612;2022-10-13T09:18:08;97971.75;;;12.97;78.48
75146;BME280;63641;46.526;24.612;2022-10-13T09:20:36;97995.78;;;13.19;78.45
75146;BME280;63641;46.526;24.612;2022-10-13T09:23:08;97986.88;;;13.09;78.28
75146;BME280;63641;46.526;24.612;2022-10-13T09:25:45;97986.59;;;13.10;78.41
75146;BME280;63641;46.526;24.612;2022-10-13T09:28:29;97976.31;;;13.02;78.29
75146;BME280;63641;46.526;24.612;2022-10-13T09:31:22;98015.31;;;13.32;78.31
75146;BME280;63641;46.526;24.612;2022-10-13T09:37:00;97993.94;;;13.15;77.98
75146;BME280;63641;46.526;24.612;2022-10-13T09:39:30;98007.22;;;13.16;78.14
75146;BME280;63641;46.526;24.612;2022-10-13T09:42:21;98016.41;;;13.25;78.27
75146;BME280;63641;46.526;24.612;2022-10-13T09:44:59;97980.94;;;13.01;78.38
75146;BME280;63641;46.526;24.612;2022-10-13T09:47:29;97981.75;;;13.02;78.28
75146;BME280;63641;46.526;24.612;2022-10-13T09:50:02;97984.47;;;13.02;78.23
75146;BME280;63641;46.526;24.612;2022-10-13T09:52:33;97971.19;;;13.00;78.28
75146;BME280;63641;46.526;24.612;2022-10-13T09:55:01;97981.75;;;13.07;78.31
75146;BME280;63641;46.526;24.612;2022-10-13T09:57:33;97973.63;;;13.02;78.04
75146;BME280;63641;46.526;24.612;2022-10-13T10:00:16;98002.31;;;13.23;78.19
75146;BME280;63641;46.526;24.612;2022-10-13T10:02:55;98004.19;;;13.23;78.21
75146;BME280;63641;46.526;24.612;2022-10-13T10:07:52;97967.69;;;12.95;78.31
75146;BME280;63641;46.526;24.612;2022-10-13T10:12:54;97957.34;;;12.97;78.37
75146;BME280;63641;46.526;24.612;2022-10-13T10:15:42;97962.22;;;13.00;78.55
75146;BME280;63641;46.526;24.612;2022-10-13T10:18:47;97983.31;;;13.18;78.59
75146;BME280;63641;46.526;24.612;2022-10-13T10:24:34;97944.94;;;12.86;78.48
75146;BME280;63641;46.526;24.612;2022-10-13T10:27:26;97979.25;;;13.11;78.32
75146;BME280;63641;46.526;24.612;2022-10-13T10:30:04;97972.75;;;13.06;78.38
75146;BME280;63641;46.526;24.612;2022-10-13T10:32:39;97978.19;;;13.12;78.47
75146;BME280;63641;46.526;24.612;2022-10-13T10:38:06;97947.53;;;13.01;77.98
75146;BME280;63641;46.526;24.612;2022-10-13T10:41:05;97968.63;;;13.14;78.06
75146;BME280;63641;46.526;24.612;2022-10-13T10:43:44;97970.28;;;13.15;78.14
75146;BME280;63641;46.526;24.612;2022-10-13T10:46:21;97946.19;;;12.98;78.01
75146;BME280;63641;46.526;24.612;2022-10-13T10:49:00;97921.78;;;12.93;78.13
75146;BME280;63641;46.526;24.612;2022-10-13T10:51:35;97972.94;;;13.20;78.22
75146;BME280;63641;46.526;24.612;2022-10-13T10:54:28;97968.34;;;13.26;78.26
75146;BME280;63641;46.526;24.612;2022-10-13T10:57:07;97934.72;;;13.12;78.01
75146;BME280;63641;46.526;24.612;2022-10-13T10:59:42;97962.00;;;13.36;78.20
75146;BME280;63641;46.526;24.612;2022-10-13T11:04:57;97911.53;;;13.24;77.85
75146;BME280;63641;46.526;24.612;2022-10-13T11:15:28;97944.00;;;13.45;77.70
75146;BME280;63641;46.526;24.612;2022-10-13T11:17:58;97937.53;;;13.36;77.93
75146;BME280;63641;46.526;24.612;2022-10-13T11:25:44;97907.72;;;13.20;77.98
75146;BME280;63641;46.526;24.612;2022-10-13T11:36:34;97925.66;;;13.26;78.36
75146;BME280;63641;46.526;24.612;2022-10-13T11:39:25;97915.28;;;13.34;78.24
75146;BME280;63641;46.526;24.612;2022-10-13T11:44:56;97902.06;;;13.51;78.03
75146;BME280;63641;46.526;24.612;2022-10-13T11:50:42;97899.78;;;13.63;77.81
75146;BME280;63641;46.526;24.612;2022-10-13T11:53:22;97889.19;;;13.62;77.72
75146;BME280;63641;46.526;24.612;2022-10-13T11:55:57;97879.66;;;13.64;77.46
75146;BME280;63641;46.526;24.612;2022-10-13T11:58:31;97864.22;;;13.54;77.59
75146;BME280;63641;46.526;24.612;2022-10-13T12:01:03;97897.47;;;13.75;77.57
75146;BME280;63641;46.526;24.612;2022-10-13T12:09:00;97872.06;;;13.61;77.53
75146;BME280;63641;46.526;24.612;2022-10-13T12:11:32;97891.75;;;13.77;77.51
75146;BME280;63641;46.526;24.612;2022-10-13T12:14:00;97885.25;;;13.73;77.72
75146;BME280;63641;46.526;24.612;2022-10-13T12:16:27;97871.16;;;13.71;77.50
75146;BME280;63641;46.526;24.612;2022-10-13T12:19:07;97891.97;;;13.81;77.53
75146;BME280;63641;46.526;24.612;2022-10-13T12:21:47;97890.34;;;13.85;77.56
75146;BME280;63641;46.526;24.612;2022-10-13T12:24:15;97890.34;;;13.85;77.45
75146;BME280;63641;46.526;24.612;2022-10-13T12:26:45;97889.16;;;13.91;77.35
75146;BME280;63641;46.526;24.612;2022-10-13T12:29:27;97895.94;;;13.93;77.20
75146;BME280;63641;46.526;24.612;2022-10-13T12:32:15;97863.75;;;13.76;77.15
75146;BME280;63641;46.526;24.612;2022-10-13T12:34:51;97877.34;;;13.76;77.02
75146;BME280;63641;46.526;24.612;2022-10-13T12:37:29;97898.66;;;13.93;77.16
75146;BME280;63641;46.526;24.612;2022-10-13T12:39:59;97871.88;;;13.82;76.97
75146;BME280;63641;46.526;24.612;2022-10-13T12:42:34;97875.50;;;13.96;76.95
75146;BME280;63641;46.526;24.612;2022-10-13T12:45:16;97848.81;;;13.74;76.89
75146;BME280;63641;46.526;24.612;2022-10-13T12:53:04;97867.47;;;13.86;76.96
75146;BME280;63641;46.526;24.612;2022-10-13T12:55:35;97847.41;;;13.76;76.79
75146;BME280;63641;46.526;24.612;2022-10-13T12:58:31;97840.38;;;13.75;77.00
75146;BME280;63641;46.526;24.612;2022-10-13T13:03:39;97849.53;;;13.85;77.21
75146;BME280;63641;46.526;24.612;2022-10-13T13:08:41;97817.16;;;13.83;76.81
75146;BME280;63641;46.526;24.612;2022-10-13T13:11:35;97859.00;;;14.11;76.60
75146;BME280;63641;46.526;24.612;2022-10-13T13:17:32;97836.53;;;14.00;76.52
75146;BME280;63641;46.526;24.612;2022-10-13T13:20:33;97841.88;;;14.11;76.51
75146;BME280;63641;46.526;24.612;2022-10-13T13:23:34;97827.72;;;14.09;76.29
75146;BME280;63641;46.526;24.612;2022-10-13T13:26:23;97850.06;;;14.30;76.21
75146;BME280;63641;46.526;24.612;2022-10-13T13:29:04;97851.09;;;14.34;76.03
75146;BME280;63641;46.526;24.612;2022-10-13T13:31:31;97828.41;;;14.19;75.98
75146;BME280;63641;46.526;24.612;2022-10-13T13:33:59;97824.59;;;14.20;75.90
75146;BME280;63641;46.526;24.612;2022-10-13T13:36:29;97832.16;;;14.23;75.83
75146;BME280;63641;46.526;24.612;2022-10-13T13:38:57;97837.97;;;14.36;75.73
75146;BME280;63641;46.526;24.612;2022-10-13T13:41:24;97813.91;;;14.24;75.68
75146;BME280;63641;46.526;24.612;2022-10-13T13:43:58;97825.63;;;14.24;75.69
75146;BME280;63641;46.526;24.612;2022-10-13T13:46:35;97812.66;;;14.16;75.63
75146;BME280;63641;46.526;24.612;2022-10-13T13:49:12;97834.31;;;14.26;75.53
75146;BME280;63641;46.526;24.612;2022-10-13T13:51:39;97844.63;;;14.30;75.52
75146;BME280;63641;46.526;24.612;2022-10-13T13:54:06;97822.81;;;14.11;75.55
75146;BME280;63641;46.526;24.612;2022-10-13T13:56:35;97821.72;;;14.12;75.75
75146;BME280;63641;46.526;24.612;2022-10-13T13:59:02;97809.34;;;14.00;75.85
75146;BME280;63641;46.526;24.612;2022-10-13T14:01:32;97825.31;;;14.07;75.70
75146;BME280;63641;46.526;24.612;2022-10-13T14:07:54;97827.50;;;14.05;75.83
75146;BME280;63641;46.526;24.612;2022-10-13T14:10:25;97822.19;;;13.95;75.95
75146;BME280;63641;46.526;24.612;2022-10-13T14:12:52;97817.84;;;13.94;75.78
75146;BME280;63641;46.526;24.612;2022-10-13T14:15:19;97823.81;;;13.96;75.99
75146;BME280;63641;46.526;24.612;2022-10-13T14:18:09;97816.00;;;13.89;75.99
75146;BME280;63641;46.526;24.612;2022-10-13T14:20:58;97823.88;;;13.91;76.07
75146;BME280;63641;46.526;24.612;2022-10-13T14:23:39;97811.50;;;13.80;76.01
75146;BME280;63641;46.526;24.612;2022-10-13T14:26:15;97790.44;;;13.66;76.34
75146;BME280;63641;46.526;24.612;2022-10-13T14:28:49;97809.88;;;13.78;76.09
75146;BME280;63641;46.526;24.612;2022-10-13T14:31:18;97802.88;;;13.72;76.05
75146;BME280;63641;46.526;24.612;2022-10-13T14:33:45;97827.78;;;13.85;76.38
75146;BME280;63641;46.526;24.612;2022-10-13T14:36:35;97812.13;;;13.71;76.25
75146;BME280;63641;46.526;24.612;2022-10-13T14:39:03;97829.50;;;13.75;76.21
75146;BME280;63641;46.526;24.612;2022-10-13T14:41:42;97787.31;;;13.54;76.25
75146;BME280;63641;46.526;24.612;2022-10-13T14:44:15;97783.28;;;13.51;76.27
75146;BME280;63641;46.526;24.612;2022-10-13T14:47:03;97793.84;;;13.53;76.04
75146;BME280;63641;46.526;24.612;2022-10-13T14:57:35;97825.84;;;13.61;76.44
75146;BME280;63641;46.526;24.612;2022-10-13T15:00:35;97792.84;;;13.44;76.63
75146;BME280;63641;46.526;24.612;2022-10-13T15:03:18;97823.41;;;13.60;76.81